Maike D — V2FO4 — position and weather

sailwx.info

Track history (hours):
 
Tides and Currents Weather Stations Pressure Air Temp Water Temp Dewpoint Dewpoint Depression Visibility Wind Speed Wind Dir Waves Ship Positions

Maike D

Last reported at 2014-Sep-21 05:32 UTC. Time now 2014-Sep-21 06:05 UTC.
Position N 40°50' E 028°40'.

Length 133 m; draft 6.5 m.

Type: Ship (hazmat cat A). MMSI: 305739000.

Date/timePositionNaut miles runAvg speedWind from/ knotsBaromVisibWave heightAir tempDewpointWater temp
2014-Sep-21 05:32N 40°50' E 028°40'238 5.9
2014-Sep-19 13:32N 37°31' E 025°52'1313.3
2014-Sep-19 12:33N 37°20' E 025°60'1413.0
2014-Sep-19 11:30N 37°08' E 026°08'  
2014-Sep-17 00:20N 32°50' E 033°29'1113.4
2014-Sep-16 23:33N 32°55' E 033°40'58 1.7
2014-Sep-15 12:32N 32°46' E 034°49'1413.9
2014-Sep-15 11:33N 32°33' E 034°44'1413.9
2014-Sep-15 10:33N 32°20' E 034°40'  
2014-Sep-13 06:26N 35°51' E 027°41'1314.3
2014-Sep-13 05:33N 35°60' E 027°30'1414.1
2014-Sep-13 04:33N 36°09' E 027°17'1313.0
2014-Sep-13 03:31N 36°18' E 027°05'1413.2
2014-Sep-13 02:29N 36°27' E 026°52'1413.2
2014-Sep-13 01:24N 36°37' E 026°39'1113.2
2014-Sep-13 00:32N 36°45' E 026°29'1414.0
2014-Sep-12 23:33N 36°55' E 026°17'1414.2
2014-Sep-12 22:33N 37°07' E 026°07'1413.7
2014-Sep-12 21:33N 37°19' E 025°59'1413.7
2014-Sep-12 20:33N 37°32' E 025°53'1413.7
2014-Sep-12 19:33N 37°45' E 025°50'1513.3
2014-Sep-12 18:27N 37°60' E 025°47'1213.4
2014-Sep-12 17:33N 38°12' E 025°45'1313.3
2014-Sep-12 16:33N 38°25' E 025°43'1412.7
2014-Sep-12 15:25N 38°38' E 025°51'53 1.6
2014-Sep-11 05:33N 39°31' E 025°47'1313.3
2014-Sep-11 04:33N 39°44' E 025°50'1413.4
2014-Sep-11 03:32N 39°57' E 025°55'  
Track history (hours):
 
Tides and Currents Weather Stations Pressure Air Temp Water Temp Dewpoint Dewpoint Depression Visibility Wind Speed Wind Dir Waves Ship Positions

Maike D

Last reported at 2014-Sep-21 05:32 UTC. Time now 2014-Sep-21 06:05 UTC.
Position N 40°50' E 028°40'.

Length 133 m; draft 6.5 m.

Type: Ship (hazmat cat A). MMSI: 305739000.

Date/timePositionNaut miles runAvg speedWind from/ knotsBaromVisibWave heightAir tempDewpointWater temp
2014-Sep-21 05:32N 40°50' E 028°40'238 5.9
2014-Sep-19 13:32N 37°31' E 025°52'1313.3
2014-Sep-19 12:33N 37°20' E 025°60'1413.0
2014-Sep-19 11:30N 37°08' E 026°08'  
2014-Sep-17 00:20N 32°50' E 033°29'1113.4
2014-Sep-16 23:33N 32°55' E 033°40'58 1.7
2014-Sep-15 12:32N 32°46' E 034°49'1413.9
2014-Sep-15 11:33N 32°33' E 034°44'1413.9
2014-Sep-15 10:33N 32°20' E 034°40'  
2014-Sep-13 06:26N 35°51' E 027°41'1314.3
2014-Sep-13 05:33N 35°60' E 027°30'1414.1
2014-Sep-13 04:33N 36°09' E 027°17'1313.0
2014-Sep-13 03:31N 36°18' E 027°05'1413.2
2014-Sep-13 02:29N 36°27' E 026°52'1413.2
2014-Sep-13 01:24N 36°37' E 026°39'1113.2
2014-Sep-13 00:32N 36°45' E 026°29'1414.0
2014-Sep-12 23:33N 36°55' E 026°17'1414.2
2014-Sep-12 22:33N 37°07' E 026°07'1413.7
2014-Sep-12 21:33N 37°19' E 025°59'1413.7
2014-Sep-12 20:33N 37°32' E 025°53'1413.7
2014-Sep-12 19:33N 37°45' E 025°50'1513.3
2014-Sep-12 18:27N 37°60' E 025°47'1213.4
2014-Sep-12 17:33N 38°12' E 025°45'1313.3
2014-Sep-12 16:33N 38°25' E 025°43'1412.7
2014-Sep-12 15:25N 38°38' E 025°51'53 1.6
2014-Sep-11 05:33N 39°31' E 025°47'1313.3
2014-Sep-11 04:33N 39°44' E 025°50'1413.4
2014-Sep-11 03:32N 39°57' E 025°55'  

Dump ship's entire track history